createdAt,value
2024-05-09T00:00:46.424Z,100897.78
2024-05-09T00:03:14.303Z,100893.16
2024-05-09T00:05:42.455Z,100892.19
2024-05-09T00:08:10.797Z,100890.50
2024-05-09T00:10:39.866Z,100895.09
2024-05-09T00:13:09.347Z,100885.75
2024-05-09T00:15:37.381Z,100891.09
2024-05-09T00:18:07.133Z,100889.63
2024-05-09T00:20:39.207Z,100888.66
2024-05-09T00:23:11.656Z,100893.38
2024-05-09T00:25:40.088Z,100898.94
2024-05-09T00:28:07.968Z,100891.44
2024-05-09T00:30:37.107Z,100893.75
2024-05-09T00:33:07.172Z,100894.34
2024-05-09T00:35:36.126Z,100895.44
2024-05-09T00:38:04.226Z,100892.41
2024-05-09T00:40:44.928Z,100898.19
2024-05-09T00:43:14.302Z,100886.84
2024-05-09T00:45:43.616Z,100881.78
2024-05-09T00:48:15.257Z,100884.38
2024-05-09T00:50:45.775Z,100892.22
2024-05-09T00:53:15.122Z,100890.53
2024-05-09T00:55:43.128Z,100888.34
2024-05-09T00:58:12.904Z,100898.16
2024-05-09T01:00:41.882Z,100894.75
2024-05-09T01:03:12.504Z,100882.63
2024-05-09T01:05:44.710Z,100886.53
2024-05-09T01:08:12.708Z,100883.28
2024-05-09T01:10:43.908Z,100890.88
2024-05-09T01:13:12.984Z,100888.44
2024-05-09T01:15:40.843Z,100896.56
2024-05-09T01:18:12.109Z,100892.03
2024-05-09T01:20:43.842Z,100891.81
2024-05-09T01:23:15.395Z,100885.88
2024-05-09T01:25:45.323Z,100882.13
2024-05-09T01:28:14.089Z,100879.22
2024-05-09T01:30:41.805Z,100883.22
2024-05-09T01:33:11.330Z,100892.28
2024-05-09T01:35:42.046Z,100885.63
2024-05-09T01:38:13.897Z,100885.50
2024-05-09T01:40:41.895Z,100881.13
2024-05-09T01:43:11.207Z,100888.00
2024-05-09T01:45:41.104Z,100890.31
2024-05-09T01:48:10.487Z,100882.94
2024-05-09T01:50:41.890Z,100885.00
2024-05-09T01:53:11.618Z,100888.75
2024-05-09T01:55:39.419Z,100872.88
2024-05-09T01:58:07.459Z,100883.53
2024-05-09T02:00:40.242Z,100880.22
2024-05-09T02:03:14.083Z,100882.97
2024-05-09T02:05:45.326Z,100882.25
2024-05-09T02:08:20.929Z,100877.50
2024-05-09T02:10:49.964Z,100873.63
2024-05-09T02:13:18.202Z,100872.38
2024-05-09T02:15:45.880Z,100861.41
2024-05-09T02:18:14.125Z,100870.09
2024-05-09T02:20:43.157Z,100873.38
2024-05-09T02:23:11.713Z,100867.31
2024-05-09T02:25:39.454Z,100860.81
2024-05-09T02:28:07.107Z,100865.63
2024-05-09T02:30:40.672Z,100863.91
2024-05-09T02:33:12.415Z,100867.88
2024-05-09T02:35:42.397Z,100871.16
2024-05-09T02:38:10.690Z,100862.31
2024-05-09T02:40:39.709Z,100866.78
2024-05-09T02:43:10.030Z,100871.88
2024-05-09T02:45:39.681Z,100874.34
2024-05-09T02:48:10.405Z,100879.25
2024-05-09T02:50:40.787Z,100875.97
2024-05-09T02:53:09.825Z,100880.66
2024-05-09T02:55:41.576Z,100869.97
2024-05-09T02:58:09.613Z,100872.16
2024-05-09T03:00:40.709Z,100876.88
2024-05-09T03:03:12.971Z,100874.31
2024-05-09T03:05:43.945Z,100871.97
2024-05-09T03:08:11.937Z,100873.94
2024-05-09T03:10:39.955Z,100877.66
2024-05-09T03:13:14.028Z,100876.63
2024-05-09T03:15:43.163Z,100874.25
2024-05-09T03:18:11.663Z,100875.44
2024-05-09T03:20:40.189Z,100868.75
2024-05-09T03:23:09.737Z,100878.75
2024-05-09T03:25:38.951Z,100883.41
2024-05-09T03:28:06.964Z,100882.50
2024-05-09T03:30:41.072Z,100885.47
2024-05-09T03:33:19.257Z,100883.78
2024-05-09T03:35:48.947Z,100879.84
2024-05-09T03:38:17.383Z,100884.00
2024-05-09T03:40:49.633Z,100876.88
2024-05-09T03:43:18.939Z,100875.50
2024-05-09T03:45:49.426Z,100873.28
2024-05-09T03:48:17.566Z,100875.50
2024-05-09T03:50:47.913Z,100873.38
2024-05-09T03:53:15.869Z,100871.25
2024-05-09T03:55:43.535Z,100873.38
2024-05-09T03:58:13.063Z,100877.63
2024-05-09T04:00:42.314Z,100886.44
2024-05-09T04:03:12.052Z,100883.78
2024-05-09T04:05:42.811Z,100889.31
2024-05-09T04:08:13.382Z,100885.69
2024-05-09T04:10:41.510Z,100889.00
2024-05-09T04:13:10.408Z,100886.44
2024-05-09T04:15:37.909Z,100886.13
2024-05-09T04:18:05.808Z,100886.00
2024-05-09T04:20:38.646Z,100889.41
2024-05-09T04:23:12.245Z,100887.72
2024-05-09T04:25:47.029Z,100883.22
2024-05-09T04:28:14.947Z,100886.84
2024-05-09T04:30:43.192Z,100885.16
2024-05-09T04:33:13.194Z,100882.28
2024-05-09T04:35:45.611Z,100891.00
2024-05-09T04:38:14.509Z,100887.44
2024-05-09T04:40:42.810Z,100890.06
2024-05-09T04:43:19.105Z,100901.84
2024-05-09T04:45:46.688Z,100894.91
2024-05-09T04:48:14.585Z,100894.06
2024-05-09T04:50:42.616Z,100897.66
2024-05-09T04:53:11.483Z,100902.88
2024-05-09T04:55:40.235Z,100906.28
2024-05-09T04:58:11.814Z,100905.03
2024-05-09T05:00:40.901Z,100903.31
2024-05-09T05:03:13.097Z,100908.06
2024-05-09T05:05:45.058Z,100907.25
2024-05-09T05:08:15.026Z,100906.94
2024-05-09T05:10:43.392Z,100901.94
2024-05-09T05:13:23.040Z,100909.69
2024-05-09T05:15:57.525Z,100912.03
2024-05-09T05:18:27.250Z,100898.34
2024-05-09T05:20:58.756Z,100904.78
2024-05-09T05:23:26.488Z,100912.72
2024-05-09T05:25:55.077Z,100909.72
2024-05-09T05:28:23.156Z,100913.13
2024-05-09T05:30:51.031Z,100912.63
2024-05-09T05:33:19.465Z,100922.03
2024-05-09T05:35:47.789Z,100913.28
2024-05-09T05:38:15.508Z,100908.94
2024-05-09T05:40:43.082Z,100912.28
2024-05-09T05:43:17.260Z,100912.72
2024-05-09T05:45:45.434Z,100915.84
2024-05-09T05:48:14.149Z,100917.34
2024-05-09T05:50:42.304Z,100914.75
2024-05-09T05:53:10.808Z,100920.69
2024-05-09T05:55:42.812Z,100917.19
2024-05-09T05:58:11.284Z,100918.13
2024-05-09T06:00:40.599Z,100922.34
2024-05-09T06:03:10.356Z,100924.31
2024-05-09T06:05:44.147Z,100922.38
2024-05-09T06:08:12.515Z,100927.09
2024-05-09T06:10:41.376Z,100918.88
2024-05-09T06:13:13.440Z,100910.88
2024-05-09T06:15:42.158Z,100917.22
2024-05-09T06:18:13.297Z,100914.47
2024-05-09T06:20:43.447Z,100918.13
2024-05-09T06:23:12.546Z,100913.47
2024-05-09T06:25:40.575Z,100913.72
2024-05-09T06:28:08.147Z,100908.75
2024-05-09T06:30:42.561Z,100907.66
2024-05-09T06:33:13.458Z,100914.06
2024-05-09T06:35:44.898Z,100903.09
2024-05-09T06:38:13.316Z,100904.69
2024-05-09T06:40:44.519Z,100914.00
2024-05-09T06:43:17.922Z,100906.97
2024-05-09T06:45:50.306Z,100906.75
2024-05-09T06:48:19.831Z,100913.50
2024-05-09T06:50:48.328Z,100906.00
2024-05-09T06:53:16.473Z,100910.59
2024-05-09T06:55:44.194Z,100904.41
2024-05-09T06:58:11.825Z,100907.81
2024-05-09T07:00:41.274Z,100909.59
2024-05-09T07:03:16.748Z,100909.13
2024-05-09T07:05:47.470Z,100900.63
2024-05-09T07:08:16.438Z,100902.78
2024-05-09T07:10:44.479Z,100900.59
2024-05-09T07:13:13.458Z,100900.38
2024-05-09T07:15:41.885Z,100902.53
2024-05-09T07:18:17.763Z,100899.00
2024-05-09T07:20:47.592Z,100908.06
2024-05-09T07:23:16.157Z,100899.84
2024-05-09T07:25:46.384Z,100902.09
2024-05-09T07:28:17.436Z,100898.47
2024-05-09T07:30:47.708Z,100901.13
2024-05-09T07:33:20.016Z,100890.81
2024-05-09T07:35:52.835Z,100885.31
2024-05-09T07:38:20.841Z,100878.28
2024-05-09T07:40:51.088Z,100885.91
2024-05-09T07:43:18.833Z,100886.25
2024-05-09T07:45:52.517Z,100877.13
2024-05-09T07:52:42.895Z,100879.50
2024-05-09T07:53:49.085Z,100877.28
2024-05-09T07:56:22.382Z,100876.88
2024-05-09T07:58:53.478Z,100874.97
2024-05-09T08:01:21.547Z,100866.28
2024-05-09T08:03:50.481Z,100876.53
2024-05-09T08:06:18.371Z,100864.63
2024-05-09T08:08:47.362Z,100865.06
2024-05-09T08:11:15.105Z,100874.38
2024-05-09T08:13:42.675Z,100869.47
2024-05-09T08:16:10.589Z,100864.34
2024-05-09T08:18:39.462Z,100868.00
2024-05-09T08:21:07.235Z,100872.13
2024-05-09T08:23:34.791Z,100871.25
2024-05-09T08:26:02.317Z,100871.53
2024-05-09T08:28:29.951Z,100864.78
2024-05-09T08:30:57.929Z,100863.56
2024-05-09T08:33:25.768Z,100862.72
2024-05-09T08:35:54.571Z,100867.50
2024-05-09T08:38:22.115Z,100858.38
2024-05-09T08:40:52.065Z,100859.78
2024-05-09T08:43:20.709Z,100877.50
2024-05-09T08:45:50.460Z,100855.03
2024-05-09T08:48:18.762Z,100854.38
2024-05-09T08:50:46.902Z,100867.88
2024-05-09T08:53:15.498Z,100858.75
2024-05-09T08:55:44.460Z,100866.75
2024-05-09T08:58:20.049Z,100866.91
2024-05-09T09:00:49.168Z,100854.69
2024-05-09T09:03:27.576Z,100872.13
2024-05-09T09:06:02.747Z,100889.19
2024-05-09T09:08:30.428Z,100856.41
2024-05-09T09:11:01.483Z,100863.16
2024-05-09T09:13:29.148Z,100855.00
2024-05-09T09:16:00.318Z,100852.31
2024-05-09T09:18:29.362Z,100851.19
2024-05-09T09:20:57.007Z,100864.88
2024-05-09T09:23:24.526Z,100847.53
2024-05-09T09:25:52.171Z,100848.53
2024-05-09T09:28:23.445Z,100846.28
2024-05-09T09:30:51.137Z,100845.84
2024-05-09T09:33:19.271Z,100844.56
2024-05-09T09:35:47.298Z,100839.50
2024-05-09T09:38:18.977Z,100839.22
2024-05-09T09:40:50.482Z,100851.94
2024-05-09T09:43:21.063Z,100840.94
2024-05-09T09:45:53.856Z,100836.97
2024-05-09T09:48:22.995Z,100834.03
2024-05-09T09:50:54.755Z,100841.47
2024-05-09T09:53:23.563Z,100846.00
2024-05-09T09:55:51.945Z,100838.81
2024-05-09T09:58:19.935Z,100840.91
2024-05-09T10:00:47.719Z,100840.91
2024-05-09T10:03:15.407Z,100837.25
2024-05-09T10:05:46.139Z,100832.44
2024-05-09T10:08:16.642Z,100821.59
2024-05-09T10:10:47.944Z,100829.78
2024-05-09T10:13:16.410Z,100829.22
2024-05-09T10:15:45.824Z,100831.59
2024-05-09T10:18:13.884Z,100830.59
2024-05-09T10:20:45.652Z,100834.53
2024-05-09T10:23:25.914Z,100823.41
2024-05-09T10:26:00.082Z,100843.69
2024-05-09T10:28:35.162Z,100818.75
2024-05-09T10:31:10.687Z,100815.78
2024-05-09T10:33:52.135Z,100821.72
2024-05-09T10:36:26.580Z,100820.59
2024-05-09T10:38:55.308Z,100809.75
2024-05-09T10:41:23.771Z,100825.81
2024-05-09T10:43:52.148Z,100810.72
2024-05-09T10:46:20.442Z,100812.97
2024-05-09T10:48:50.004Z,100802.09
2024-05-09T10:51:21.734Z,100803.94
2024-05-09T10:53:49.321Z,100805.47
2024-05-09T10:56:17.471Z,100803.06
2024-05-09T10:58:45.235Z,100800.09
2024-05-09T11:01:14.045Z,100797.09
2024-05-09T11:03:42.249Z,100792.59
2024-05-09T11:06:11.866Z,100789.63
2024-05-09T11:08:42.383Z,100782.44
2024-05-09T11:11:10.632Z,100797.19
2024-05-09T11:13:39.215Z,100783.53
2024-05-09T11:16:19.403Z,100790.44
2024-05-09T11:18:59.186Z,100783.81
2024-05-09T11:21:27.088Z,100781.09
2024-05-09T11:23:54.725Z,100793.22
2024-05-09T11:26:22.681Z,100790.94
2024-05-09T11:28:50.767Z,100774.84
2024-05-09T11:31:18.786Z,100781.75
2024-05-09T11:33:46.896Z,100767.50
2024-05-09T11:36:16.494Z,100769.31
2024-05-09T11:38:44.099Z,100774.41
2024-05-09T11:41:19.291Z,100770.19
2024-05-09T11:43:46.868Z,100774.53
2024-05-09T11:46:14.696Z,100765.72
2024-05-09T11:48:42.546Z,100765.09
2024-05-09T11:51:10.411Z,100756.09
2024-05-09T11:53:37.958Z,100752.41
2024-05-09T11:56:05.831Z,100748.34
2024-05-09T11:58:37.066Z,100756.63
2024-05-09T12:01:04.877Z,100743.59
2024-05-09T12:03:32.759Z,100742.63
2024-05-09T12:06:00.893Z,100746.16
2024-05-09T12:08:28.896Z,100732.97
2024-05-09T12:10:57.046Z,100735.38
2024-05-09T12:13:24.939Z,100729.84
2024-05-09T12:15:54.742Z,100732.19
2024-05-09T12:18:22.267Z,100734.13
2024-05-09T12:20:49.763Z,100732.84
2024-05-09T12:23:17.288Z,100727.16
2024-05-09T12:25:44.966Z,100720.25
2024-05-09T12:28:12.606Z,100716.44
2024-05-09T12:30:41.570Z,100715.44
2024-05-09T12:33:13.513Z,100722.88
2024-05-09T12:35:45.397Z,100717.19
2024-05-09T12:38:15.634Z,100726.78
2024-05-09T12:40:43.610Z,100721.28
2024-05-09T12:43:11.835Z,100717.78
2024-05-09T12:45:40.509Z,100710.41
2024-05-09T12:48:12.328Z,100705.06
2024-05-09T12:50:41.794Z,100702.19
2024-05-09T12:53:09.777Z,100700.34
2024-05-09T12:55:44.924Z,100688.47
2024-05-09T12:58:23.755Z,100706.09
2024-05-09T13:00:54.418Z,100708.78
2024-05-09T13:03:24.468Z,100702.56
2024-05-09T13:05:52.414Z,100692.69
2024-05-09T13:08:21.327Z,100692.41
2024-05-09T13:10:51.514Z,100681.34
2024-05-09T13:13:19.728Z,100677.34
2024-05-09T13:15:47.695Z,100673.66
2024-05-09T13:18:15.468Z,100676.53
2024-05-09T13:20:43.068Z,100676.53
2024-05-09T13:23:10.838Z,100670.03
2024-05-09T13:25:38.513Z,100670.56
2024-05-09T13:28:07.711Z,100671.78
2024-05-09T13:30:40.568Z,100660.19
2024-05-09T13:33:11.920Z,100661.88
2024-05-09T13:35:45.630Z,100656.03
2024-05-09T13:38:17.267Z,100664.78
2024-05-09T13:40:45.594Z,100656.88
2024-05-09T13:43:13.756Z,100651.34
2024-05-09T13:45:44.655Z,100653.19
2024-05-09T13:48:17.762Z,100652.19
2024-05-09T13:50:48.071Z,100646.72
2024-05-09T13:53:15.622Z,100635.97
2024-05-09T13:55:43.708Z,100645.06
2024-05-09T13:58:11.504Z,100645.59
2024-05-09T14:00:46.251Z,100642.56
2024-05-09T14:03:19.491Z,100641.72
2024-05-09T14:05:49.857Z,100635.53
2024-05-09T14:08:20.520Z,100630.00
2024-05-09T14:10:49.201Z,100632.03
2024-05-09T14:13:21.573Z,100625.97
2024-05-09T14:15:49.510Z,100608.34
2024-05-09T14:18:23.278Z,100611.88
2024-05-09T14:20:51.363Z,100615.78
2024-05-09T14:23:35.913Z,100618.13
2024-05-09T14:26:04.851Z,100615.78
2024-05-09T14:28:32.686Z,100615.31
2024-05-09T14:31:04.401Z,100631.44
2024-05-09T14:33:32.318Z,100601.69
2024-05-09T14:36:03.772Z,100608.09
2024-05-09T14:38:31.972Z,100596.00
2024-05-09T14:41:03.705Z,100597.50
2024-05-09T14:43:33.659Z,100591.31
2024-05-09T14:46:04.104Z,100591.00
2024-05-09T14:48:32.333Z,100597.06
2024-05-09T14:50:59.989Z,100580.78
2024-05-09T14:53:28.497Z,100564.66
2024-05-09T14:55:56.394Z,100577.25
2024-05-09T14:58:24.226Z,100573.91
2024-05-09T15:00:52.539Z,100572.41
2024-05-09T15:03:21.402Z,100568.88
2024-05-09T15:05:50.174Z,100579.13
2024-05-09T15:08:18.997Z,100574.44
2024-05-09T15:10:49.962Z,100565.34
2024-05-09T15:13:19.039Z,100558.63
2024-05-09T15:16:10.137Z,100568.38
2024-05-09T15:18:48.416Z,100546.38
2024-05-09T15:21:26.396Z,100548.41
2024-05-09T15:23:53.935Z,100550.75
2024-05-09T15:26:21.658Z,100554.78
2024-05-09T15:28:54.405Z,100553.78
2024-05-09T15:31:24.940Z,100540.50
2024-05-09T15:33:52.726Z,100556.97
2024-05-09T15:36:21.250Z,100546.41
2024-05-09T15:38:48.851Z,100546.22
2024-05-09T15:41:17.754Z,100549.56
2024-05-09T15:43:45.333Z,100545.88
2024-05-09T15:46:13.730Z,100550.41
2024-05-09T15:48:44.642Z,100545.72
2024-05-09T15:51:13.865Z,100539.50
2024-05-09T15:53:46.676Z,100537.16
2024-05-09T15:56:14.303Z,100539.16
2024-05-09T15:58:41.928Z,100533.78
2024-05-09T16:01:14.527Z,100541.66
2024-05-09T16:03:45.293Z,100526.72
2024-05-09T16:06:15.469Z,100534.97
2024-05-09T16:08:45.542Z,100529.59
2024-05-09T16:11:16.929Z,100532.97
2024-05-09T16:13:45.281Z,100527.75
2024-05-09T16:16:16.937Z,100532.44
2024-05-09T16:18:45.272Z,100540.69
2024-05-09T16:21:14.812Z,100530.91
2024-05-09T16:23:42.561Z,100532.78
2024-05-09T16:26:10.561Z,100528.41
2024-05-09T16:28:38.171Z,100534.63
2024-05-09T16:31:09.515Z,100535.47
2024-05-09T16:33:40.550Z,100522.19
2024-05-09T16:36:11.807Z,100526.72
2024-05-09T16:38:41.102Z,100518.31
2024-05-09T16:41:09.799Z,100524.03
2024-05-09T16:43:40.685Z,100526.03
2024-05-09T16:46:09.078Z,100515.28
2024-05-09T16:48:37.391Z,100518.66
2024-05-09T16:51:05.132Z,100528.91
2024-05-09T16:53:32.843Z,100520.00
2024-05-09T16:56:02.320Z,100512.59
2024-05-09T16:58:30.152Z,100513.47
2024-05-09T17:01:01.631Z,100511.78
2024-05-09T17:03:29.562Z,100518.31
2024-05-09T17:05:57.955Z,100515.63
2024-05-09T17:08:25.917Z,100515.47
2024-05-09T17:10:54.029Z,100521.69
2024-05-09T17:13:22.801Z,100519.69
2024-05-09T17:15:50.813Z,100517.31
2024-05-09T17:18:19.983Z,100512.59
2024-05-09T17:20:47.727Z,100507.91
2024-05-09T17:23:17.279Z,100509.75
2024-05-09T17:25:45.121Z,100504.88
2024-05-09T17:28:12.874Z,100501.50
2024-05-09T17:30:45.574Z,100508.06
2024-05-09T17:33:15.647Z,100504.38
2024-05-09T17:35:50.760Z,100511.44
2024-05-09T17:38:26.760Z,100501.84
2024-05-09T17:40:58.830Z,100509.41
2024-05-09T17:46:13.677Z,100505.19
2024-05-09T17:48:43.934Z,100511.53
2024-05-09T17:51:14.872Z,100513.72
2024-05-09T17:53:43.483Z,100508.50
2024-05-09T17:56:14.427Z,100514.91
2024-05-09T17:58:42.139Z,100514.38
2024-05-09T18:01:09.887Z,100513.03
2024-05-09T18:03:38.239Z,100512.22
2024-05-09T18:06:07.744Z,100516.22
2024-05-09T18:08:40.956Z,100506.13
2024-05-09T18:11:11.192Z,100514.34
2024-05-09T18:13:39.413Z,100513.81
2024-05-09T18:16:07.335Z,100517.66
2024-05-09T18:18:35.240Z,100516.66
2024-05-09T18:21:02.914Z,100519.34
2024-05-09T18:23:31.173Z,100518.47
2024-05-09T18:26:01.344Z,100525.03
2024-05-09T18:28:30.592Z,100517.78
2024-05-09T18:31:00.553Z,100526.69
2024-05-09T18:33:28.157Z,100524.31
2024-05-09T18:35:55.822Z,100529.69
2024-05-09T18:38:26.810Z,100532.34
2024-05-09T18:40:54.869Z,100527.50
2024-05-09T18:43:28.739Z,100523.78
2024-05-09T18:46:04.392Z,100525.25
2024-05-09T18:48:32.019Z,100533.47
2024-05-09T18:50:59.766Z,100531.44
2024-05-09T18:53:27.660Z,100531.06
2024-05-09T18:55:55.282Z,100534.03
2024-05-09T18:58:22.985Z,100537.75
2024-05-09T19:00:57.724Z,100539.19
2024-05-09T19:03:29.258Z,100545.34
2024-05-09T19:05:59.260Z,100540.13
2024-05-09T19:08:29.293Z,100546.34
2024-05-09T19:10:58.404Z,100549.97
2024-05-09T19:13:26.302Z,100556.03
2024-05-09T19:15:53.954Z,100550.59
2024-05-09T19:18:21.976Z,100550.06
2024-05-09T19:20:49.588Z,100553.06
2024-05-09T19:23:19.574Z,100554.50
2024-05-09T19:25:47.073Z,100558.53
2024-05-09T19:28:14.791Z,100560.38
2024-05-09T19:30:43.097Z,100566.56
2024-05-09T19:33:13.350Z,100564.84
2024-05-09T19:35:42.726Z,100563.50
2024-05-09T19:38:13.189Z,100565.75
2024-05-09T19:40:40.990Z,100566.41
2024-05-09T19:43:09.301Z,100570.41
2024-05-09T19:45:39.805Z,100562.81
2024-05-09T19:48:08.159Z,100562.13
2024-05-09T19:50:41.692Z,100572.25
2024-05-09T19:53:12.815Z,100563.91
2024-05-09T19:55:41.198Z,100562.94
2024-05-09T19:58:10.031Z,100570.09
2024-05-09T20:00:41.051Z,100570.09
2024-05-09T20:03:12.283Z,100563.53
2024-05-09T20:05:40.287Z,100564.50
2024-05-09T20:08:08.308Z,100564.13
2024-05-09T20:10:36.886Z,100565.25
2024-05-09T20:13:07.010Z,100570.94
2024-05-09T20:15:37.036Z,100572.47
2024-05-09T20:18:05.998Z,100567.72
2024-05-09T20:20:39.295Z,100568.03
2024-05-09T20:23:13.274Z,100572.16
2024-05-09T20:25:41.612Z,100578.81
2024-05-09T20:28:09.847Z,100572.63
2024-05-09T20:30:37.732Z,100566.88
2024-05-09T20:33:07.624Z,100568.56
2024-05-09T20:35:41.403Z,100565.94
2024-05-09T20:38:09.090Z,100571.69
2024-05-09T20:40:38.962Z,100562.13
2024-05-09T20:43:09.943Z,100571.00
2024-05-09T20:45:38.417Z,100562.47
2024-05-09T20:48:07.109Z,100572.47
2024-05-09T20:50:39.494Z,100569.47
2024-05-09T20:53:11.070Z,100575.97
2024-05-09T20:55:39.660Z,100573.16
2024-05-09T20:58:07.368Z,100581.09
2024-05-09T21:00:40.056Z,100577.47
2024-05-09T21:03:11.970Z,100577.03
2024-05-09T21:05:40.807Z,100577.19
2024-05-09T21:08:08.890Z,100581.81
2024-05-09T21:10:37.523Z,100580.09
2024-05-09T21:13:06.800Z,100581.56
2024-05-09T21:15:35.833Z,100576.63
2024-05-09T21:18:04.576Z,100574.66
2024-05-09T21:20:34.942Z,100570.88
2024-05-09T21:23:03.775Z,100585.72
2024-05-09T21:25:31.995Z,100574.75
2024-05-09T21:27:59.817Z,100575.22
2024-05-09T21:30:37.495Z,100577.31
2024-05-09T21:33:10.845Z,100574.81
2024-05-09T21:35:39.959Z,100576.78
2024-05-09T21:38:07.914Z,100573.94
2024-05-09T21:40:36.791Z,100571.75
2024-05-09T21:43:05.959Z,100569.06
2024-05-09T21:45:35.876Z,100579.38
2024-05-09T21:50:40.341Z,100572.50
2024-05-09T21:53:11.339Z,100569.22
2024-05-09T21:55:39.133Z,100571.38
2024-05-09T21:58:06.723Z,100570.81
2024-05-09T22:00:38.170Z,100567.88
2024-05-09T22:03:08.665Z,100569.16
2024-05-09T22:05:37.471Z,100572.41
2024-05-09T22:08:05.873Z,100571.53
2024-05-09T22:10:37.015Z,100564.25
2024-05-09T22:13:06.307Z,100568.03
2024-05-09T22:15:39.482Z,100569.56
2024-05-09T22:18:09.297Z,100568.59
2024-05-09T22:20:43.660Z,100564.06
2024-05-09T22:23:12.630Z,100568.44
2024-05-09T22:25:40.133Z,100569.75
2024-05-09T22:28:08.077Z,100560.34
2024-05-09T22:30:39.071Z,100564.84
2024-05-09T22:33:09.744Z,100554.56
2024-05-09T22:35:38.828Z,100563.88
2024-05-09T22:38:06.748Z,100565.66
2024-05-09T22:40:44.971Z,100562.44
2024-05-09T22:43:23.889Z,100561.06
2024-05-09T22:45:55.954Z,100563.44
2024-05-09T22:48:25.094Z,100566.66
2024-05-09T22:50:53.854Z,100566.13
2024-05-09T22:53:25.423Z,100561.91
2024-05-09T22:55:53.322Z,100565.13
2024-05-09T22:58:21.478Z,100564.69
2024-05-09T23:00:49.269Z,100563.88
2024-05-09T23:03:18.563Z,100562.03
2024-05-09T23:05:46.231Z,100567.09
2024-05-09T23:08:13.732Z,100556.56
2024-05-09T23:10:41.278Z,100563.31
2024-05-09T23:13:09.221Z,100555.72
2024-05-09T23:15:38.769Z,100559.94
2024-05-09T23:18:07.376Z,100560.06
2024-05-09T23:20:39.661Z,100557.81
2024-05-09T23:23:10.056Z,100555.84
2024-05-09T23:25:38.829Z,100563.59
2024-05-09T23:28:06.760Z,100564.44
2024-05-09T23:30:38.715Z,100560.66
2024-05-09T23:33:10.033Z,100566.56
2024-05-09T23:35:37.980Z,100573.59
2024-05-09T23:38:05.697Z,100560.63
2024-05-09T23:40:39.346Z,100559.78
2024-05-09T23:43:10.533Z,100558.97
2024-05-09T23:45:38.817Z,100563.88
2024-05-09T23:48:06.992Z,100554.16
2024-05-09T23:50:37.746Z,100563.16
2024-05-09T23:53:08.586Z,100558.22
2024-05-09T23:55:37.463Z,100559.06
2024-05-09T23:58:05.508Z,100550.09
